createdAt,value
2023-03-24T00:01:06.937Z,99793.00
2023-03-24T00:03:33.631Z,99788.66
2023-03-24T00:06:03.164Z,99776.25
2023-03-24T00:08:31.782Z,99765.53
2023-03-24T00:11:01.635Z,99770.91
2023-03-24T00:13:29.341Z,99769.03
2023-03-24T00:15:56.631Z,99762.00
2023-03-24T00:18:25.889Z,99756.81
2023-03-24T00:20:58.673Z,99752.47
2023-03-24T00:23:27.878Z,99739.69
2023-03-24T00:26:04.952Z,99740.25
2023-03-24T00:28:33.315Z,99741.94
2023-03-24T00:31:02.191Z,99736.72
2023-03-24T00:33:34.869Z,99715.25
2023-03-24T00:36:07.011Z,99713.59
2023-03-24T00:38:34.804Z,99712.78
2023-03-24T00:41:02.368Z,99720.00
2023-03-24T00:43:29.656Z,99727.38
2023-03-24T00:46:05.974Z,99731.28
2023-03-24T00:48:33.002Z,99728.41
2023-03-24T00:51:02.937Z,99703.44
2023-03-24T00:53:29.729Z,99710.44
2023-03-24T00:55:58.405Z,99707.97
2023-03-24T00:58:25.459Z,99705.09
2023-03-24T01:00:56.959Z,99696.22
2023-03-24T01:03:27.693Z,99692.50
2023-03-24T01:05:57.786Z,99699.53
2023-03-24T01:08:25.648Z,99692.50
2023-03-24T01:10:54.282Z,99692.50
2023-03-24T01:13:23.687Z,99685.47
2023-03-24T01:15:51.202Z,99690.00
2023-03-24T01:18:18.450Z,99688.34
2023-03-24T01:20:47.141Z,99681.13
2023-03-24T01:23:16.386Z,99681.31
2023-03-24T01:25:45.903Z,99664.22
2023-03-24T01:28:13.452Z,99674.94
2023-03-24T01:30:40.512Z,99666.03
2023-03-24T01:33:07.942Z,99661.69
2023-03-24T01:35:35.348Z,99653.63
2023-03-24T01:38:06.454Z,99664.56
2023-03-24T01:40:34.774Z,99654.00
2023-03-24T01:43:01.412Z,99655.03
2023-03-24T01:45:42.562Z,99657.06
2023-03-24T01:48:18.808Z,99654.19
2023-03-24T01:51:04.594Z,99656.88
2023-03-24T01:53:34.018Z,99650.69
2023-03-24T01:56:02.765Z,99657.06
2023-03-24T01:58:32.384Z,99662.44
2023-03-24T02:00:59.156Z,99658.06
2023-03-24T02:03:29.994Z,99656.41
2023-03-24T02:05:57.698Z,99660.94
2023-03-24T02:08:48.218Z,99678.25
2023-03-24T02:11:14.877Z,99696.19
2023-03-24T02:13:41.482Z,99717.84
2023-03-24T02:16:26.018Z,99717.84
2023-03-24T02:19:14.803Z,99705.63
2023-03-24T02:21:59.699Z,99719.69
2023-03-24T02:25:04.394Z,99714.50
2023-03-24T02:27:52.329Z,99732.44
2023-03-24T02:31:19.745Z,99740.50
2023-03-24T02:33:52.290Z,99760.75
2023-03-24T02:36:21.749Z,99785.94
2023-03-24T02:39:25.810Z,99779.06
2023-03-24T02:42:31.200Z,99778.88
2023-03-24T02:45:35.271Z,99777.06
2023-03-24T02:48:20.616Z,99791.28
2023-03-24T02:51:08.507Z,99771.03
2023-03-24T02:54:23.135Z,99783.59
2023-03-24T02:56:58.392Z,99789.81
2023-03-24T02:59:44.925Z,99800.72
2023-03-24T03:02:20.290Z,99805.06
2023-03-24T03:04:52.699Z,99816.81
2023-03-24T03:07:25.053Z,99830.22
2023-03-24T03:09:59.958Z,99816.00
2023-03-24T03:12:31.681Z,99815.13
2023-03-24T03:15:03.614Z,99822.34
2023-03-24T03:17:35.647Z,99835.75
2023-03-24T03:20:11.249Z,99844.00
2023-03-24T03:22:45.339Z,99841.31
2023-03-24T03:25:16.639Z,99851.22
2023-03-24T03:27:46.957Z,99847.69
2023-03-24T03:30:22.330Z,99843.31
2023-03-24T03:32:55.427Z,99857.75
2023-03-24T03:35:51.017Z,99862.28
2023-03-24T03:38:26.325Z,99860.63
2023-03-24T03:41:00.218Z,99859.78
2023-03-24T03:43:28.425Z,99859.78
2023-03-24T03:45:55.709Z,99863.47
2023-03-24T03:48:26.373Z,99862.63
2023-03-24T03:51:06.275Z,99865.50
2023-03-24T03:53:51.456Z,99873.72
2023-03-24T03:56:20.648Z,99890.66
2023-03-24T03:58:47.294Z,99892.50
2023-03-24T04:01:18.664Z,99893.50
2023-03-24T04:04:06.549Z,99899.06
2023-03-24T04:06:36.100Z,99892.88
2023-03-24T04:09:28.615Z,99907.09
2023-03-24T04:12:02.699Z,99892.03
2023-03-24T04:14:46.039Z,99886.69
2023-03-24T04:17:46.507Z,99896.72
2023-03-24T04:20:24.244Z,99913.66
2023-03-24T04:23:26.400Z,99918.19
2023-03-24T04:26:34.336Z,99927.06
2023-03-24T04:29:09.968Z,99928.72
2023-03-24T04:31:49.171Z,99936.13
2023-03-24T04:34:22.056Z,99950.38
2023-03-24T04:36:54.576Z,99945.84
2023-03-24T04:39:28.147Z,99942.50
2023-03-24T04:41:57.840Z,99929.94
2023-03-24T04:44:26.498Z,99945.19
2023-03-24T04:46:57.688Z,99946.03
2023-03-24T04:49:25.426Z,99957.56
2023-03-24T04:51:52.513Z,99966.63
2023-03-24T04:54:20.491Z,99961.44
2023-03-24T04:56:50.912Z,99955.25
2023-03-24T04:59:18.495Z,99963.28
2023-03-24T05:01:51.724Z,99972.16
2023-03-24T05:04:28.157Z,99981.22
2023-03-24T05:06:55.100Z,99974.00
2023-03-24T05:09:23.663Z,99989.28
2023-03-24T05:11:50.718Z,99977.03
2023-03-24T05:14:17.249Z,99987.75
2023-03-24T05:16:43.888Z,99993.13
2023-03-24T05:19:11.082Z,100000.53
2023-03-24T05:21:37.733Z,100011.44
2023-03-24T05:24:04.674Z,100007.06
2023-03-24T05:26:33.125Z,100009.75
2023-03-24T05:29:00.347Z,100009.94
2023-03-24T05:31:27.196Z,100025.19
2023-03-24T05:33:53.963Z,100022.50
2023-03-24T05:36:20.514Z,100027.03
2023-03-24T05:38:47.130Z,100028.88
2023-03-24T05:41:13.729Z,100039.75
2023-03-24T05:43:40.286Z,100031.72
2023-03-24T05:46:07.131Z,100031.91
2023-03-24T05:48:33.695Z,100028.38
2023-03-24T05:51:00.274Z,100029.03
2023-03-24T05:53:26.813Z,100035.41
2023-03-24T05:55:53.686Z,100037.25
2023-03-24T05:58:21.464Z,100042.63
2023-03-24T06:00:48.389Z,100040.78
2023-03-24T06:03:17.272Z,100048.81
2023-03-24T06:05:45.775Z,100050.47
2023-03-24T06:08:12.699Z,100046.13
2023-03-24T06:10:40.661Z,100051.50
2023-03-24T06:13:09.126Z,100059.34
2023-03-24T06:15:36.255Z,100058.53
2023-03-24T06:18:05.389Z,100050.66
2023-03-24T06:20:32.293Z,100060.56
2023-03-24T06:22:59.906Z,100057.69
2023-03-24T06:25:28.576Z,100073.59
2023-03-24T06:27:55.288Z,100068.41
2023-03-24T06:30:21.824Z,100064.72
2023-03-24T06:32:48.713Z,100067.41
2023-03-24T06:35:17.057Z,100069.94
2023-03-24T06:37:44.716Z,100073.44
2023-03-24T06:40:15.987Z,100074.28
2023-03-24T06:42:42.648Z,100083.16
2023-03-24T06:45:10.033Z,100082.13
2023-03-24T06:47:37.273Z,100094.56
2023-03-24T06:50:05.594Z,100097.25
2023-03-24T06:52:32.224Z,100096.38
2023-03-24T06:54:58.952Z,100096.22
2023-03-24T06:57:26.023Z,100103.06
2023-03-24T06:59:53.346Z,100105.59
2023-03-24T07:02:19.926Z,100127.69
2023-03-24T07:04:46.505Z,100112.44
2023-03-24T07:07:52.800Z,100120.34
2023-03-24T07:09:59.814Z,100122.00
2023-03-24T07:12:26.406Z,100116.44
2023-03-24T07:14:52.936Z,100127.03
2023-03-24T07:17:19.410Z,100117.13
2023-03-24T07:19:45.990Z,100135.72
2023-03-24T07:22:12.515Z,100127.69
2023-03-24T07:24:39.028Z,100143.63
2023-03-24T07:27:06.745Z,100145.09
2023-03-24T07:29:33.247Z,100148.63
2023-03-24T07:32:00.998Z,100145.78
2023-03-24T07:34:28.608Z,100140.22
2023-03-24T07:36:56.081Z,100153.50
2023-03-24T07:39:22.629Z,100163.84
2023-03-24T07:41:49.184Z,100150.28
2023-03-24T07:44:15.904Z,100152.97
2023-03-24T07:46:42.558Z,100147.41
2023-03-24T07:49:18.975Z,100142.88
2023-03-24T07:51:46.540Z,100152.44
2023-03-24T07:54:13.272Z,100162.16
2023-03-24T07:56:39.825Z,100173.72
2023-03-24T07:59:06.518Z,100162.84
2023-03-24T08:01:33.118Z,100176.06
2023-03-24T08:03:59.989Z,100170.53
2023-03-24T08:06:26.789Z,100168.69
2023-03-24T08:08:53.303Z,100173.06
2023-03-24T08:11:19.811Z,100185.44
2023-03-24T08:13:46.401Z,100182.59
2023-03-24T08:16:12.986Z,100191.31
2023-03-24T08:18:39.581Z,100196.50
2023-03-24T08:21:06.582Z,100180.25
2023-03-24T08:23:33.336Z,100181.72
2023-03-24T08:25:59.866Z,100185.91
2023-03-24T08:28:26.425Z,100193.63
2023-03-24T08:30:53.106Z,100190.56
2023-03-24T08:33:19.698Z,100187.56
2023-03-24T08:35:46.820Z,100193.41
2023-03-24T08:38:18.116Z,100198.47
2023-03-24T08:40:45.485Z,100200.63
2023-03-24T08:43:15.314Z,100199.28
2023-03-24T08:45:41.871Z,100215.03
2023-03-24T08:48:09.117Z,100200.41
2023-03-24T08:50:39.230Z,100208.97
2023-03-24T08:53:06.170Z,100205.94
2023-03-24T08:55:32.754Z,100211.78
2023-03-24T08:57:59.747Z,100219.50
2023-03-24T09:00:29.071Z,100213.13
2023-03-24T09:02:56.582Z,100228.22
2023-03-24T09:05:40.998Z,100225.38
2023-03-24T09:08:12.412Z,100225.19
2023-03-24T09:10:39.770Z,100235.09
2023-03-24T09:13:06.368Z,100236.75
2023-03-24T09:15:33.740Z,100238.44
2023-03-24T09:18:00.900Z,100233.72
2023-03-24T09:20:27.556Z,100245.13
2023-03-24T09:22:54.195Z,100248.47
2023-03-24T09:25:21.514Z,100250.16
2023-03-24T09:27:48.397Z,100243.75
2023-03-24T09:30:17.524Z,100256.00
2023-03-24T09:32:45.470Z,100246.09
2023-03-24T09:35:12.078Z,100256.31
2023-03-24T09:37:39.364Z,100263.00
2023-03-24T09:40:07.805Z,100262.50
2023-03-24T09:42:38.662Z,100249.38
2023-03-24T09:45:13.533Z,100248.66
2023-03-24T09:47:51.211Z,100257.03
2023-03-24T09:50:22.820Z,100263.34
2023-03-24T09:52:54.780Z,100268.03
2023-03-24T09:55:25.388Z,100278.28
2023-03-24T09:57:53.779Z,100283.31
2023-03-24T10:00:30.528Z,100270.50
2023-03-24T10:03:01.865Z,100279.06
2023-03-24T10:05:47.367Z,100267.13
2023-03-24T10:08:33.577Z,100274.84
2023-03-24T10:11:11.306Z,100284.38
2023-03-24T10:14:04.365Z,100279.00
2023-03-24T10:16:38.987Z,100274.09
2023-03-24T10:19:17.521Z,100265.84
2023-03-24T10:22:13.989Z,100263.16
2023-03-24T10:25:06.529Z,100276.78
2023-03-24T10:27:45.293Z,100265.84
2023-03-24T10:30:17.692Z,100268.53
2023-03-24T10:32:45.349Z,100266.88
2023-03-24T10:35:37.297Z,100270.38
2023-03-24T10:38:19.829Z,100274.78
2023-03-24T10:40:47.953Z,100277.09
2023-03-24T10:43:17.299Z,100269.69
2023-03-24T10:45:47.490Z,100274.88
2023-03-24T10:48:33.150Z,100281.09
2023-03-24T10:50:59.981Z,100279.91
2023-03-24T10:53:27.341Z,100272.19
2023-03-24T10:55:54.001Z,100280.25
2023-03-24T10:58:39.752Z,100268.03
2023-03-24T11:01:23.529Z,100277.28
2023-03-24T11:03:50.930Z,100281.63
2023-03-24T11:06:20.690Z,100277.28
2023-03-24T11:08:47.531Z,100279.13
2023-03-24T11:11:31.654Z,100279.28
2023-03-24T11:14:04.544Z,100279.28
2023-03-24T11:16:36.677Z,100281.97
2023-03-24T11:19:23.316Z,100284.88
2023-03-24T11:21:52.220Z,100284.88
2023-03-24T11:24:20.650Z,100287.34
2023-03-24T11:27:03.217Z,100294.59
2023-03-24T11:29:38.513Z,100293.75
2023-03-24T11:32:14.223Z,100277.63
2023-03-24T11:34:48.895Z,100283.69
2023-03-24T11:37:22.210Z,100289.22
2023-03-24T11:40:14.585Z,100293.75
2023-03-24T11:42:45.425Z,100285.53
2023-03-24T11:45:35.834Z,100282.19
2023-03-24T11:48:11.330Z,100288.38
2023-03-24T11:50:39.303Z,100288.38
2023-03-24T11:53:14.739Z,100289.41
2023-03-24T11:55:49.521Z,100287.56
2023-03-24T11:58:44.154Z,100295.63
2023-03-24T12:01:28.533Z,100303.69
2023-03-24T12:04:13.031Z,100298.97
2023-03-24T12:06:58.753Z,100296.94
2023-03-24T12:09:32.502Z,100288.50
2023-03-24T12:12:14.001Z,100292.22
2023-03-24T12:15:28.721Z,100282.41
2023-03-24T12:18:20.204Z,100285.94
2023-03-24T12:20:53.948Z,100277.03
2023-03-24T12:23:32.933Z,100282.03
2023-03-24T12:26:32.997Z,100288.09
2023-03-24T12:29:15.108Z,100285.03
2023-03-24T12:32:03.382Z,100285.03
2023-03-24T12:34:42.472Z,100270.75
2023-03-24T12:37:42.850Z,100277.16
2023-03-24T12:40:13.004Z,100281.34
2023-03-24T12:42:42.018Z,100273.06
2023-03-24T12:45:20.667Z,100274.75
2023-03-24T12:48:05.351Z,100276.72
2023-03-24T12:50:58.979Z,100266.44
2023-03-24T12:53:45.811Z,100262.72
2023-03-24T12:56:19.118Z,100255.47
2023-03-24T12:58:50.340Z,100268.56
2023-03-24T13:01:23.551Z,100258.44
2023-03-24T13:04:01.056Z,100261.81
2023-03-24T13:06:36.346Z,100253.38
2023-03-24T13:09:33.337Z,100264.16
2023-03-24T13:12:22.641Z,100255.03
2023-03-24T13:15:06.998Z,100255.88
2023-03-24T13:17:39.188Z,100261.25
2023-03-24T13:20:12.592Z,100266.63
2023-03-24T13:22:39.954Z,100253.38
2023-03-24T13:25:25.100Z,100252.53
2023-03-24T13:27:57.475Z,100254.38
2023-03-24T13:30:32.485Z,100247.31
2023-03-24T13:33:16.935Z,100258.28
2023-03-24T13:36:17.267Z,100249.38
2023-03-24T13:38:51.590Z,100254.56
2023-03-24T13:41:23.985Z,100240.28
2023-03-24T13:43:57.639Z,100244.00
2023-03-24T13:46:24.419Z,100252.06
2023-03-24T13:48:54.409Z,100250.84
2023-03-24T13:51:32.780Z,100254.56
2023-03-24T13:54:07.034Z,100264.50
2023-03-24T13:56:42.536Z,100259.75
2023-03-24T13:59:25.459Z,100262.66
2023-03-24T14:02:17.628Z,100262.84
2023-03-24T14:04:45.778Z,100258.09
2023-03-24T14:07:49.980Z,100258.09
2023-03-24T14:10:16.583Z,100252.72
2023-03-24T14:13:01.798Z,100250.84
2023-03-24T14:15:32.825Z,100248.00
2023-03-24T14:18:23.481Z,100236.56
2023-03-24T14:20:56.350Z,100242.63
2023-03-24T14:23:22.970Z,100243.59
2023-03-24T14:25:55.600Z,100236.56
2023-03-24T14:28:41.586Z,100237.41
2023-03-24T14:31:16.032Z,100231.19
2023-03-24T14:34:02.138Z,100234.91
2023-03-24T14:36:39.579Z,100234.91
2023-03-24T14:39:27.525Z,100235.09
2023-03-24T14:41:55.889Z,100225.16
2023-03-24T14:44:51.920Z,100224.50
2023-03-24T14:47:21.452Z,100224.50
2023-03-24T14:49:50.668Z,100230.72
2023-03-24T14:52:24.925Z,100226.34
2023-03-24T14:55:05.903Z,100221.16
2023-03-24T14:57:40.022Z,100227.19
2023-03-24T15:00:24.952Z,100231.75
2023-03-24T15:03:24.094Z,100226.34
2023-03-24T15:05:50.993Z,100221.81
2023-03-24T15:08:23.521Z,100220.97
2023-03-24T15:11:05.212Z,100233.59
2023-03-24T15:13:37.012Z,100228.22
2023-03-24T15:16:07.081Z,100217.44
2023-03-24T15:18:34.776Z,100225.53
2023-03-24T15:21:01.318Z,100216.63
2023-03-24T15:23:28.447Z,100226.53
2023-03-24T15:25:56.364Z,100196.28
2023-03-24T15:28:28.303Z,100214.28
2023-03-24T15:30:56.586Z,100206.22
2023-03-24T15:33:23.615Z,100208.06
2023-03-24T15:35:56.839Z,100214.47
2023-03-24T15:38:31.976Z,100210.94
2023-03-24T15:41:05.348Z,100209.25
2023-03-24T15:43:32.038Z,100200.56
2023-03-24T15:46:11.934Z,100198.84
2023-03-24T15:48:39.579Z,100198.22
2023-03-24T15:51:09.229Z,100208.50
2023-03-24T15:53:49.015Z,100192.09
2023-03-24T15:56:17.950Z,100209.63
2023-03-24T15:58:57.516Z,100204.59
2023-03-24T16:01:35.821Z,100192.31
2023-03-24T16:04:06.010Z,100197.91
2023-03-24T16:06:35.492Z,100189.16
2023-03-24T16:09:06.737Z,100200.13
2023-03-24T16:11:33.287Z,100193.22
2023-03-24T16:14:18.344Z,100194.25
2023-03-24T16:16:44.935Z,100191.91
2023-03-24T16:19:12.174Z,100188.59
2023-03-24T16:21:39.024Z,100198.53
2023-03-24T16:24:05.802Z,100203.41
2023-03-24T16:26:33.295Z,100205.28
2023-03-24T16:29:14.470Z,100203.97
2023-03-24T16:31:41.051Z,100203.28
2023-03-24T16:34:07.585Z,100209.88
2023-03-24T16:36:34.234Z,100186.03
2023-03-24T16:39:05.022Z,100194.09
2023-03-24T16:41:31.583Z,100191.59
2023-03-24T16:43:58.127Z,100193.75
2023-03-24T16:46:27.653Z,100199.91
2023-03-24T16:48:54.857Z,100195.28
2023-03-24T16:51:21.936Z,100201.41
2023-03-24T16:53:48.890Z,100197.81
2023-03-24T16:56:18.872Z,100197.75
2023-03-24T16:58:48.739Z,100194.34
2023-03-24T17:01:26.417Z,100192.56
2023-03-24T17:03:58.514Z,100194.53
2023-03-24T17:06:26.977Z,100200.03
2023-03-24T17:08:53.791Z,100198.44
2023-03-24T17:11:34.016Z,100191.66
2023-03-24T17:14:04.879Z,100186.41
2023-03-24T17:16:36.358Z,100195.13
2023-03-24T17:19:06.417Z,100190.41
2023-03-24T17:21:37.189Z,100190.41
2023-03-24T17:24:03.932Z,100184.16
2023-03-24T17:26:31.962Z,100185.19
2023-03-24T17:28:58.780Z,100183.53
2023-03-24T17:31:25.336Z,100177.47
2023-03-24T17:33:51.908Z,100183.88
2023-03-24T17:36:18.444Z,100172.47
2023-03-24T17:38:47.974Z,100178.19
2023-03-24T17:41:14.876Z,100180.44
2023-03-24T17:43:41.403Z,100175.41
2023-03-24T17:46:08.361Z,100170.41
2023-03-24T17:48:37.639Z,100168.25
2023-03-24T17:51:05.072Z,100161.78
2023-03-24T17:53:33.534Z,100165.84
2023-03-24T17:56:07.135Z,100172.63
2023-03-24T17:58:35.797Z,100170.28
2023-03-24T18:01:07.888Z,100184.97
2023-03-24T18:03:37.577Z,100177.25
2023-03-24T18:06:12.567Z,100184.66
2023-03-24T18:08:39.625Z,100199.97
2023-03-24T18:11:09.158Z,100194.41
2023-03-24T18:13:36.149Z,100184.09
2023-03-24T18:16:17.724Z,100194.34
2023-03-24T18:18:47.152Z,100189.03
2023-03-24T18:21:13.792Z,100195.56
2023-03-24T18:23:40.316Z,100188.59
2023-03-24T18:26:08.669Z,100196.94
2023-03-24T18:28:37.534Z,100192.03
2023-03-24T18:31:16.449Z,100182.56
2023-03-24T18:33:45.885Z,100185.91
2023-03-24T18:36:16.491Z,100188.25
2023-03-24T18:38:43.601Z,100180.16
2023-03-24T18:41:12.712Z,100173.13
2023-03-24T18:43:41.006Z,100177.69
2023-03-24T18:46:11.403Z,100180.53
2023-03-24T18:48:39.652Z,100185.25
2023-03-24T18:51:06.416Z,100181.25
2023-03-24T18:53:35.805Z,100179.13
2023-03-24T18:56:04.133Z,100185.06
2023-03-24T18:58:30.993Z,100180.25
2023-03-24T19:00:58.721Z,100187.19
2023-03-24T19:03:27.225Z,100188.75
2023-03-24T19:05:53.977Z,100185.59
2023-03-24T19:08:21.927Z,100187.00
2023-03-24T19:10:49.163Z,100182.78
2023-03-24T19:13:16.974Z,100176.97
2023-03-24T19:15:47.746Z,100179.34
2023-03-24T19:18:15.416Z,100182.25
2023-03-24T19:20:42.132Z,100179.06
2023-03-24T19:23:09.100Z,100174.88
2023-03-24T19:25:35.672Z,100179.78
2023-03-24T19:28:02.253Z,100181.84
2023-03-24T19:30:29.455Z,100188.41
2023-03-24T19:32:56.738Z,100184.88
2023-03-24T19:35:24.005Z,100183.41
2023-03-24T19:37:50.630Z,100174.47
2023-03-24T19:40:17.398Z,100174.88
2023-03-24T19:42:45.154Z,100185.63
2023-03-24T19:45:13.878Z,100184.78
2023-03-24T19:47:40.498Z,100180.59
2023-03-24T19:50:08.127Z,100177.06
2023-03-24T19:52:35.440Z,100165.66
2023-03-24T19:55:02.488Z,100160.66
2023-03-24T19:57:30.537Z,100152.94
2023-03-24T19:59:57.515Z,100149.44
2023-03-24T20:02:24.890Z,100146.03
2023-03-24T20:04:55.047Z,100153.28
2023-03-24T20:07:23.050Z,100141.41
2023-03-24T20:09:49.648Z,100145.47
2023-03-24T20:12:16.452Z,100137.91
2023-03-24T20:14:43.021Z,100143.00
2023-03-24T20:17:17.507Z,100145.22
2023-03-24T20:19:44.557Z,100142.91
2023-03-24T20:22:11.087Z,100139.75
2023-03-24T20:24:40.676Z,100139.25
2023-03-24T20:27:07.716Z,100138.09
2023-03-24T20:29:34.631Z,100140.16
2023-03-24T20:32:01.201Z,100145.22
2023-03-24T20:34:27.745Z,100143.91
2023-03-24T20:36:54.357Z,100140.06
2023-03-24T20:39:20.941Z,100139.78
2023-03-24T20:41:47.445Z,100135.91
2023-03-24T20:44:14.030Z,100136.47
2023-03-24T20:46:40.623Z,100147.56
2023-03-24T20:49:08.655Z,100139.19
2023-03-24T20:51:35.231Z,100156.50
2023-03-24T20:54:01.912Z,100142.59
2023-03-24T20:56:28.580Z,100140.25
2023-03-24T20:58:55.139Z,100145.94
2023-03-24T21:01:22.111Z,100137.22
2023-03-24T21:03:50.405Z,100143.78
2023-03-24T21:06:17.514Z,100153.00
2023-03-24T21:08:45.321Z,100151.69
2023-03-24T21:11:12.769Z,100160.75
2023-03-24T21:13:39.914Z,100150.19
2023-03-24T21:16:11.532Z,100146.84
2023-03-24T21:18:38.888Z,100147.84
2023-03-24T21:21:06.182Z,100163.31
2023-03-24T21:23:34.256Z,100155.41
2023-03-24T21:26:08.598Z,100151.06
2023-03-24T21:28:35.118Z,100150.22
2023-03-24T21:31:20.009Z,100158.63
2023-03-24T21:33:46.608Z,100159.28
2023-03-24T21:36:13.563Z,100152.22
2023-03-24T21:38:40.501Z,100152.41
2023-03-24T21:41:07.887Z,100156.94
2023-03-24T21:43:34.956Z,100149.91
2023-03-24T21:46:03.884Z,100150.06
2023-03-24T21:48:32.837Z,100152.75
2023-03-24T21:51:00.324Z,100144.91
2023-03-24T21:53:26.845Z,100150.41
2023-03-24T21:55:56.543Z,100150.41
2023-03-24T21:58:23.438Z,100150.59
2023-03-24T22:00:50.927Z,100154.28
2023-03-24T22:03:17.930Z,100150.78
2023-03-24T22:05:44.557Z,100149.28
2023-03-24T22:08:12.177Z,100142.06
2023-03-24T22:10:42.496Z,100152.13
2023-03-24T22:13:10.321Z,100157.50
2023-03-24T22:15:37.724Z,100161.16
2023-03-24T22:18:04.427Z,100159.69
2023-03-24T22:20:32.006Z,100154.97
2023-03-24T22:22:59.974Z,100159.50
2023-03-24T22:25:26.497Z,100154.13
2023-03-24T22:27:56.014Z,100148.78
2023-03-24T22:30:23.257Z,100145.06
2023-03-24T22:32:49.932Z,100154.13
2023-03-24T22:35:16.766Z,100144.25
2023-03-24T22:37:43.340Z,100153.31
2023-03-24T22:40:09.943Z,100146.28
2023-03-24T22:42:36.585Z,100145.06
2023-03-24T22:45:03.187Z,100146.78
2023-03-24T22:47:29.764Z,100150.28
2023-03-24T22:49:56.344Z,100147.75
2023-03-24T22:52:22.983Z,100143.41
2023-03-24T22:54:49.576Z,100150.44
2023-03-24T22:57:17.654Z,100145.06
2023-03-24T22:59:44.562Z,100146.09
2023-03-24T23:02:11.078Z,100150.44
2023-03-24T23:04:40.371Z,100145.25
2023-03-24T23:07:07.648Z,100148.63
2023-03-24T23:09:34.307Z,100145.44
2023-03-24T23:12:00.881Z,100152.47
2023-03-24T23:14:27.711Z,100157.00
2023-03-24T23:16:56.374Z,100140.06
2023-03-24T23:19:23.305Z,100159.84
2023-03-24T23:21:50.037Z,100158.16
2023-03-24T23:24:17.019Z,100155.50
2023-03-24T23:26:43.609Z,100158.16
2023-03-24T23:29:10.211Z,100154.66
2023-03-24T23:31:36.978Z,100161.03
2023-03-24T23:34:07.416Z,100159.19
2023-03-24T23:36:34.226Z,100155.66
2023-03-24T23:39:01.105Z,100158.50
2023-03-24T23:41:27.721Z,100149.47
2023-03-24T23:43:54.309Z,100158.50
2023-03-24T23:46:22.039Z,100154.16
2023-03-24T23:48:48.631Z,100160.53
2023-03-24T23:51:15.674Z,100156.19
2023-03-24T23:53:42.400Z,100156.19
2023-03-24T23:56:11.224Z,100153.66
2023-03-24T23:58:40.125Z,100157.19
